Time;durP1;ratioP1;P1;durP2;ratioP2;P2;SDS_P1;SDS_P2;PMS_P1;PMS_P2;Temp;Humidity;BMP_temperature;BMP_pressure;BME280_temperature;BME280_humidity;BME280_pressure;Samples;Min_cycle;Max_cycle;Signal;HPM_P1;HPM_P2
2022/11/21 02:41:33;;;;;;;25.63;17.25;;;;;;;-0.15;87.36;99659.66;4938677;28;20161;-78
2022/11/21 02:44:17;;;;;;;26.15;17.35;;;;;;;-0.15;87.43;99651.91;4948609;28;20070;-78
2022/11/21 02:46:49;;;;;;;22.77;15.23;;;;;;;-0.14;87.48;99645.81;4938230;28;20056;-76
2022/11/21 03:06:34;;;;;;;25.58;17.10;;;;;;;-0.23;87.81;99639.19;4950563;28;20047;-78
2022/11/21 03:13:20;;;;;;;28.00;17.80;;;;;;;-0.24;88.86;99632.34;4938665;28;20051;-76
2022/11/21 07:00:15;;;;;;;30.77;19.90;;;;;;;0.08;89.14;99671.88;4929242;28;20051;-77
2022/11/21 07:02:42;;;;;;;29.75;20.08;;;;;;;0.10;88.97;99675.28;4961908;28;20531;-77
2022/11/21 07:05:09;;;;;;;34.15;19.67;;;;;;;0.13;89.07;99681.19;4937702;28;20062;-76
2022/11/21 07:07:37;;;;;;;32.70;20.42;;;;;;;0.13;88.63;99680.34;4923881;29;20137;-76
2022/11/21 07:10:05;;;;;;;33.28;20.58;;;;;;;0.06;89.09;99677.13;4965638;28;20051;-76
2022/11/21 07:15:20;;;;;;;30.27;19.10;;;;;;;-0.03;89.20;99688.59;4932213;28;20040;-77
2022/11/21 07:17:47;;;;;;;28.98;18.48;;;;;;;-0.02;89.67;99698.03;4938201;28;20058;-76
2022/11/21 07:20:14;;;;;;;31.92;21.02;;;;;;;-0.01;89.22;99702.31;4937965;28;20058;-77
2022/11/21 07:22:42;;;;;;;33.13;19.67;;;;;;;-0.08;89.52;99703.41;4929525;28;20135;-76
2022/11/21 07:25:09;;;;;;;35.45;20.85;;;;;;;-0.13;90.02;99701.88;4939191;28;20253;-76
2022/11/21 07:27:36;;;;;;;33.30;20.95;;;;;;;-0.14;89.88;99701.00;4966727;28;20031;-78
2022/11/21 07:30:04;;;;;;;30.05;19.48;;;;;;;-0.14;89.66;99700.16;4967457;28;20070;-77
2022/11/21 07:32:31;;;;;;;33.10;21.05;;;;;;;-0.20;89.68;99697.75;4935421;28;20083;-76
2022/11/21 07:34:58;;;;;;;33.10;20.77;;;;;;;-0.20;89.95;99705.53;4955542;28;20054;-76
2022/11/21 07:37:26;;;;;;;33.53;21.02;;;;;;;-0.17;90.11;99706.28;4920929;28;20946;-77
2022/11/21 07:39:53;;;;;;;29.45;20.08;;;;;;;-0.21;89.99;99702.09;4970005;28;20039;-76
2022/11/21 07:42:20;;;;;;;37.15;21.20;;;;;;;-0.18;90.23;99714.94;4941665;28;20071;-77
2022/11/21 07:44:47;;;;;;;34.95;21.20;;;;;;;-0.20;89.92;99718.44;4937312;28;20066;-76
2022/11/21 07:47:14;;;;;;;34.22;21.27;;;;;;;-0.23;90.00;99721.97;4928222;28;20142;-77
2022/11/21 07:49:42;;;;;;;31.25;20.60;;;;;;;-0.24;90.11;99715.09;4940140;28;20047;-77
2022/11/21 07:52:09;;;;;;;32.17;20.20;;;;;;;-0.21;89.92;99719.34;4930827;28;20053;-77
2022/11/21 07:54:36;;;;;;;33.63;21.40;;;;;;;-0.19;89.91;99718.41;4933484;28;20119;-76
2022/11/21 07:57:04;;;;;;;35.47;21.58;;;;;;;-0.14;89.83;99715.66;4929345;28;20060;-76
2022/11/21 07:59:31;;;;;;;39.70;25.30;;;;;;;-0.18;89.55;99724.41;4940597;28;20081;-76
2022/11/21 08:01:59;;;;;;;38.17;24.02;;;;;;;-0.24;89.71;99728.03;4943263;28;20074;-77
2022/11/21 08:04:27;;;;;;;37.95;23.95;;;;;;;-0.20;89.91;99729.63;4912999;28;1147755;-76
2022/11/21 08:06:54;;;;;;;40.53;23.63;;;;;;;-0.14;89.55;99734.63;4993722;28;20053;-75
2022/11/21 08:09:21;;;;;;;39.85;24.20;;;;;;;-0.06;89.79;99730.06;4940984;28;20170;-76
2022/11/21 08:11:48;;;;;;;41.03;24.95;;;;;;;-0.12;89.23;99735.44;4943375;28;20066;-76
2022/11/21 08:14:16;;;;;;;43.47;26.05;;;;;;;-0.05;89.31;99739.53;4952802;28;20056;-77
2022/11/21 08:16:43;;;;;;;43.13;25.60;;;;;;;-0.15;89.83;99732.94;4948460;28;20059;-77
2022/11/21 08:19:10;;;;;;;41.08;26.77;;;;;;;-0.24;90.07;99733.22;4938550;29;20093;-76
2022/11/21 08:21:37;;;;;;;42.85;26.00;;;;;;;-0.32;90.14;99738.59;4981428;28;20130;-76
2022/11/21 08:28:17;;;;;;;40.92;25.48;;;;;;;-0.24;90.49;99730.63;4945690;28;20045;-77
2022/11/21 08:30:44;;;;;;;35.53;22.42;;;;;;;-0.18;90.64;99735.63;4936560;28;20243;-76
2022/11/21 08:33:12;;;;;;;37.45;24.20;;;;;;;-0.26;90.32;99737.59;5000944;28;20073;-76
2022/11/21 08:35:39;;;;;;;40.78;25.38;;;;;;;-0.36;90.81;99737.00;4932837;28;20048;-77
2022/11/21 08:38:06;;;;;;;36.83;22.25;;;;;;;-0.30;90.86;99746.31;4948570;28;20059;-75
2022/11/21 08:40:34;;;;;;;40.92;25.52;;;;;;;-0.39;91.81;99746.59;4959526;28;20135;-75
2022/11/21 08:43:04;;;;;;;37.58;24.63;;;;;;;-0.44;92.37;99757.06;4938524;28;20142;-76
2022/11/21 08:45:32;;;;;;;38.75;24.80;;;;;;;-0.36;91.66;99762.00;4968502;28;20049;-79
2022/11/21 08:48:00;;;;;;;38.90;24.77;;;;;;;-0.24;91.83;99758.22;4943719;28;20055;-78
2022/11/21 08:50:27;;;;;;;38.28;24.33;;;;;;;-0.16;91.19;99762.28;4964024;28;20059;-77
2022/11/21 08:52:59;;;;;;;36.53;22.73;;;;;;;-0.14;91.50;99760.50;4947758;28;20059;-78
2022/11/21 08:55:26;;;;;;;35.60;21.98;;;;;;;-0.10;91.19;99769.03;4945450;28;20126;-77
2022/11/21 08:57:54;;;;;;;36.88;24.15;;;;;;;-0.11;90.64;99772.50;4974288;28;20043;-77
2022/11/21 09:00:21;;;;;;;34.83;22.35;;;;;;;-0.16;91.04;99772.63;4957301;28;20059;-77
2022/11/21 09:02:48;;;;;;;38.42;23.20;;;;;;;-0.20;90.96;99773.63;5010919;28;20198;-76
2022/11/21 09:05:15;;;;;;;36.78;23.10;;;;;;;-0.16;90.45;99772.63;4971673;28;20135;-75
2022/11/21 09:07:42;;;;;;;39.25;24.23;;;;;;;-0.14;90.79;99770.84;4933428;28;20040;-76
2022/11/21 09:10:10;;;;;;;41.13;24.20;;;;;;;-0.38;91.29;99776.72;4936959;28;20061;-76
2022/11/21 09:12:37;;;;;;;41.42;23.80;;;;;;;-0.54;92.29;99779.75;4948746;28;20982;-75
2022/11/21 09:18:03;;;;;;;;;;;;;;;-0.70;93.15;99778.44;4944247;28;20075;-76
2022/11/21 09:20:31;;;;;;;48.30;25.70;;;;;;;-0.79;93.71;99782.13;4945457;28;19926;-76
2022/11/21 09:23:09;;;;;;;45.95;25.27;;;;;;;-0.88;93.75;99784.94;4967366;28;20055;-76
2022/11/21 09:25:37;;;;;;;45.25;25.05;;;;;;;-1.00;94.81;99784.38;4931183;28;20751;-76
2022/11/21 09:28:06;;;;;;;46.70;25.35;;;;;;;-1.02;94.88;99787.03;4928139;28;20131;-76
2022/11/21 09:30:33;;;;;;;48.50;26.05;;;;;;;-0.99;94.77;99788.66;4945929;28;20059;-76
2022/11/21 09:33:02;;;;;;;62.13;25.25;;;;;;;-1.05;95.52;99790.53;4945381;28;20082;-76
2022/11/21 09:35:30;;;;;;;53.80;25.27;;;;;;;-0.99;95.47;99788.66;4968504;28;20059;-76
2022/11/21 09:37:57;;;;;;;41.78;22.95;;;;;;;-1.03;95.78;99795.66;4937014;28;20044;-76
2022/11/21 09:40:25;;;;;;;46.20;24.42;;;;;;;-1.03;95.63;99795.66;4970522;28;20051;-77
2022/11/21 09:43:01;;;;;;;60.42;25.38;;;;;;;-1.14;95.26;99798.50;4939477;28;20494;-76
2022/11/21 09:45:33;;;;;;;41.50;21.98;;;;;;;-1.11;95.61;99800.16;4937056;28;20054;-76
2022/11/21 09:48:05;;;;;;;42.92;23.10;;;;;;;-1.12;94.80;99796.75;4954005;28;20134;-76
2022/11/21 09:50:38;;;;;;;46.03;25.08;;;;;;;-1.08;95.35;99802.66;4917830;28;20098;-76
2022/11/21 09:53:12;;;;;;;50.92;24.92;;;;;;;-1.04;95.41;99788.78;4933313;29;20044;-76
2022/11/21 09:55:42;;;;;;;47.60;26.33;;;;;;;-1.13;95.71;99795.03;4951084;28;20047;-76
2022/11/21 09:58:35;;;;;;;44.92;25.17;;;;;;;-1.07;95.89;99797.47;4946251;28;20051;-77
2022/11/21 10:01:02;;;;;;;46.22;26.08;;;;;;;-1.05;95.70;99795.69;4931157;28;20056;-77
2022/11/21 10:03:35;;;;;;;44.28;23.42;;;;;;;-1.20;95.81;99797.81;4933065;28;20695;-76
2022/11/21 10:06:21;;;;;;;39.42;23.70;;;;;;;-1.37;95.82;99801.63;5010536;28;20097;-77
2022/11/21 10:08:58;;;;;;;34.88;20.70;;;;;;;-1.54;95.93;99809.75;4938304;28;20059;-77
2022/11/21 10:15:04;;;;;;;33.65;20.45;;;;;;;-1.70;97.20;99813.59;4944706;28;20043;-77
2022/11/21 10:17:48;;;;;;;38.13;19.63;;;;;;;-1.72;96.78;99824.81;4942897;28;20053;-77
2022/11/21 10:20:18;;;;;;;31.42;20.98;;;;;;;-1.74;96.86;99827.44;4983983;28;20605;-77
2022/11/21 10:22:48;;;;;;;51.78;21.80;;;;;;;-1.71;96.42;99831.66;4948739;28;20040;-76
2022/11/21 10:25:22;;;;;;;54.15;23.92;;;;;;;-1.77;96.30;99836.97;4938454;29;20152;-78
2022/11/21 10:28:07;;;;;;;37.67;21.88;;;;;;;-1.77;96.63;99827.47;4958681;28;20059;-77
2022/11/21 10:30:34;;;;;;;39.97;24.58;;;;;;;-1.72;97.19;99825.66;4941664;29;20142;-75
2022/11/21 10:33:04;;;;;;;48.05;24.80;;;;;;;-1.66;96.62;99830.69;4931489;28;20609;-77
2022/11/21 10:35:40;;;;;;;45.92;23.63;;;;;;;-1.61;97.01;99839.19;4942159;28;20566;-77
2022/11/21 10:38:25;;;;;;;;;;;;;;;-1.55;96.89;99839.03;4933733;29;20069;-78
2022/11/21 10:41:11;;;;;;;40.33;24.85;;;;;;;-1.60;96.61;99851.19;4925972;28;20459;-77
2022/11/21 10:46:39;;;;;;;52.38;24.52;;;;;;;-1.74;96.92;99848.06;4934293;28;20059;-77
2022/11/21 10:49:10;;;;;;;44.83;24.98;;;;;;;-1.77;97.12;99850.69;4934002;28;20044;-76
2022/11/21 10:51:53;;;;;;;39.78;24.27;;;;;;;-1.75;97.17;99851.53;4932014;28;20154;-77
2022/11/21 10:54:32;;;;;;;46.40;25.30;;;;;;;-1.76;97.46;99856.72;4926274;28;20109;-77
2022/11/21 10:57:17;;;;;;;40.83;21.90;;;;;;;-1.76;96.69;99854.13;4940867;29;20078;-77
2022/11/21 11:00:09;;;;;;;35.72;21.88;;;;;;;-1.70;96.36;99849.69;4952116;28;20036;-77
2022/11/21 11:02:38;;;;;;;44.88;21.92;;;;;;;-1.83;95.98;99851.69;4954785;28;20078;-78
2022/11/21 11:05:15;;;;;;;35.28;21.60;;;;;;;-1.85;95.68;99856.00;4931488;29;20144;-77
2022/11/21 11:08:07;;;;;;;28.08;18.67;;;;;;;-1.74;95.45;99853.22;4923695;28;20074;-77
2022/11/21 11:11:00;;;;;;;31.95;18.58;;;;;;;-1.74;95.60;99848.06;4936406;28;20061;-77
2022/11/21 11:16:18;;;;;;;25.33;17.45;;;;;;;-1.71;95.46;99857.47;4976793;28;20048;-76
2022/11/21 11:18:58;;;;;;;32.17;16.92;;;;;;;-1.74;95.13;99852.38;4934640;28;20059;-77
2022/11/21 11:21:45;;;;;;;30.65;17.27;;;;;;;-1.65;95.23;99857.34;4939698;29;20085;-76
2022/11/21 11:24:12;;;;;;;23.85;16.10;;;;;;;-1.56;95.46;99851.97;4943536;28;20061;-76
2022/11/21 11:26:45;;;;;;;27.35;16.88;;;;;;;-1.42;94.61;99856.84;4938273;28;20066;-76
2022/11/21 11:29:18;;;;;;;41.25;19.42;;;;;;;-1.57;94.12;99858.03;4959976;28;20052;-77
2022/11/21 11:32:03;;;;;;;28.42;18.17;;;;;;;-1.55;94.35;99853.69;4943681;29;20138;-75
2022/11/21 11:34:59;;;;;;;31.58;19.40;;;;;;;-1.48;93.96;99854.41;4918322;29;20554;-76
2022/11/21 11:37:33;;;;;;;27.23;18.77;;;;;;;-1.57;93.78;99858.88;4934322;28;20054;-77
2022/11/21 11:40:25;;;;;;;29.58;18.83;;;;;;;-1.54;94.27;99861.38;4942693;28;20539;-77
2022/11/21 11:48:40;;;;;;;29.52;19.25;;;;;;;-1.49;94.13;99860.44;4932705;28;20130;-76
2022/11/21 11:51:34;;;;;;;31.95;21.63;;;;;;;-1.43;95.03;99853.41;4928501;28;20051;-76
2022/11/21 11:54:12;;;;;;;31.90;20.70;;;;;;;-1.38;94.88;99850.72;4939148;29;20071;-78
2022/11/21 11:56:41;;;;;;;29.40;20.55;;;;;;;-1.33;95.09;99844.56;4968336;28;20053;-77
2022/11/21 11:59:25;;;;;;;30.00;19.50;;;;;;;-1.29;95.13;99847.94;4966781;28;20051;-76
2022/11/21 12:02:20;;;;;;;31.88;21.55;;;;;;;-1.28;94.56;99847.03;4962892;29;20048;-75
2022/11/21 12:05:19;;;;;;;29.17;19.38;;;;;;;-1.21;94.29;99851.19;4939127;28;20499;-77
2022/11/21 12:08:03;;;;;;;26.63;18.15;;;;;;;-1.20;93.37;99846.88;4943330;28;20078;-76
2022/11/21 12:13:42;;;;;;;29.50;20.42;;;;;;;-1.22;93.46;99858.97;4944455;29;20075;-75
2022/11/21 12:16:12;;;;;;;28.60;19.13;;;;;;;-1.27;93.88;99853.91;4949345;28;20171;-76
2022/11/21 12:19:16;;;;;;;26.90;18.63;;;;;;;-1.13;93.40;99869.91;4958636;28;20564;-75
2022/11/21 12:21:43;;;;;;;24.58;17.02;;;;;;;-1.04;92.52;99856.81;4995057;28;20053;-76
2022/11/21 12:24:11;;;;;;;25.08;17.73;;;;;;;-0.96;92.67;99858.34;4953112;28;20115;-75
2022/11/21 12:27:06;;;;;;;27.77;18.90;;;;;;;-1.06;91.89;99850.81;4930329;28;20110;-76
2022/11/21 12:29:50;;;;;;;27.30;17.23;;;;;;;-1.13;92.39;99845.81;4961630;28;20138;-76
2022/11/21 12:32:27;;;;;;;25.02;17.02;;;;;;;-1.09;92.74;99835.38;4946874;29;20055;-75
2022/11/21 12:35:13;;;;;;;25.00;17.98;;;;;;;-1.02;92.74;99836.94;4962758;28;20046;-76
2022/11/21 12:38:02;;;;;;;28.05;18.05;;;;;;;-0.98;91.83;99847.22;4948841;29;20438;-76
2022/11/21 12:40:29;;;;;;;24.23;17.55;;;;;;;-0.88;92.02;99838.34;4974561;28;20091;-77
2022/11/21 12:43:21;;;;;;;23.23;16.50;;;;;;;-0.87;91.49;99837.47;4953522;28;20067;-76
2022/11/21 12:45:54;;;;;;;24.25;16.42;;;;;;;-0.96;91.20;99840.25;4947943;28;20074;-77
2022/11/21 12:54:32;;;;;;;22.95;16.20;;;;;;;-1.13;91.19;99843.25;4943986;29;20073;-77
2022/11/21 12:57:12;;;;;;;20.35;14.35;;;;;;;-1.04;90.95;99841.31;4948307;28;20487;-76
2022/11/21 12:59:57;;;;;;;20.33;13.30;;;;;;;-0.99;91.16;99840.34;4942465;29;20044;-75
2022/11/21 13:02:49;;;;;;;15.88;11.43;;;;;;;-0.98;90.46;99839.47;4940825;29;20142;-77
2022/11/21 13:05:24;;;;;;;17.10;12.52;;;;;;;-1.05;90.42;99834.44;4973849;28;20132;-76
2022/11/21 13:08:22;;;;;;;16.92;13.07;;;;;;;-1.04;90.70;99836.16;4920410;28;20419;-78
2022/11/21 13:11:57;;;;;;;16.95;12.60;;;;;;;-0.98;91.27;99837.72;4958403;28;20052;-77
2022/11/21 13:13:45;;;;;;;18.23;13.32;;;;;;;-1.00;90.44;99830.88;4934985;28;20059;-77
2022/11/21 13:16:35;;;;;;;18.70;12.57;;;;;;;-1.04;90.58;99830.09;4967046;28;20077;-76
2022/11/21 13:19:16;;;;;;;15.43;11.30;;;;;;;-0.97;91.08;99828.25;4964265;28;20057;-75
2022/11/21 13:21:48;;;;;;;17.33;11.85;;;;;;;-0.94;91.21;99823.84;4954969;28;20047;-77
2022/11/21 13:24:43;;;;;;;19.00;12.82;;;;;;;-0.87;90.20;99819.38;4943155;29;20039;-77
2022/11/21 13:27:38;;;;;;;18.48;12.30;;;;;;;-0.88;90.50;99823.69;4942050;28;20146;-76
2022/11/21 13:30:05;;;;;;;18.65;12.82;;;;;;;-0.87;90.44;99822.78;4942068;28;20055;-77
2022/11/21 13:32:37;;;;;;;18.48;13.00;;;;;;;-0.81;90.72;99820.06;4938266;28;20519;-76
2022/11/21 13:35:13;;;;;;;17.98;11.68;;;;;;;-0.79;90.03;99825.19;4951204;28;20048;-76
2022/11/21 13:38:01;;;;;;;19.30;12.13;;;;;;;-0.75;90.28;99820.81;4949417;28;20071;-77
2022/11/21 13:40:29;;;;;;;20.25;13.50;;;;;;;-0.75;89.91;99824.22;4937694;29;20059;-78
2022/11/21 13:43:18;;;;;;;22.25;13.45;;;;;;;-0.79;89.24;99820.03;4955355;28;20051;-77
2022/11/21 13:46:02;;;;;;;20.17;13.80;;;;;;;-0.86;89.89;99818.47;4942009;28;20142;-77
2022/11/21 13:48:45;;;;;;;22.80;14.20;;;;;;;-0.85;89.99;99813.28;4980281;28;20078;-77
2022/11/21 13:51:51;;;;;;;22.17;14.32;;;;;;;-0.73;89.87;99814.69;4959629;28;20039;-77
2022/11/21 13:54:21;;;;;;;20.67;14.57;;;;;;;-0.74;90.69;99815.59;4979406;28;20071;-76
2022/11/21 13:57:05;;;;;;;20.13;14.35;;;;;;;-0.74;90.47;99807.00;4943851;29;20720;-76
2022/11/21 13:59:48;;;;;;;23.00;15.02;;;;;;;-0.62;90.73;99807.53;4936739;28;20624;-76
2022/11/21 14:02:21;;;;;;;23.50;13.60;;;;;;;-0.51;90.67;99809.81;4910289;29;20139;-77
2022/11/21 14:05:12;;;;;;;22.98;14.60;;;;;;;-0.46;90.36;99807.09;4946450;28;20085;-76
2022/11/21 14:07:41;;;;;;;22.58;13.77;;;;;;;-0.56;89.78;99807.34;4922250;28;20062;-76
2022/11/21 14:10:24;;;;;;;21.48;13.35;;;;;;;-0.48;88.78;99816.66;4945081;28;20411;-76
2022/11/21 14:12:52;;;;;;;20.30;13.45;;;;;;;-0.44;88.29;99816.53;4943967;28;20123;-76
2022/11/21 14:15:48;;;;;;;22.13;14.68;;;;;;;-0.50;87.80;99796.00;4935156;29;20135;-76
2022/11/21 14:18:23;;;;;;;20.80;14.63;;;;;;;-0.52;87.83;99801.22;4921392;28;20063;-76
2022/11/21 14:20:56;;;;;;;23.23;15.43;;;;;;;-0.55;87.78;99798.69;4940768;28;20055;-77
2022/11/21 14:23:32;;;;;;;21.50;14.50;;;;;;;-0.54;87.85;99799.53;4978358;28;20085;-76
2022/11/21 14:26:03;;;;;;;24.55;15.60;;;;;;;-0.65;88.12;99801.59;4939580;28;20557;-75
2022/11/21 14:28:33;;;;;;;24.25;15.02;;;;;;;-0.64;88.81;99792.94;4941359;28;20062;-77
2022/11/21 14:31:07;;;;;;;21.52;15.05;;;;;;;-0.77;88.96;99782.94;4943478;28;20134;-75
2022/11/21 14:33:36;;;;;;;23.88;14.05;;;;;;;-0.82;89.27;99783.91;4942793;28;20138;-76
2022/11/21 14:36:15;;;;;;;25.55;16.10;;;;;;;-0.81;89.55;99788.19;4942786;29;20119;-76
2022/11/21 14:38:50;;;;;;;21.42;15.20;;;;;;;-0.73;89.90;99786.25;4920332;28;20055;-77
2022/11/21 14:41:38;;;;;;;23.83;16.20;;;;;;;-0.70;89.94;99778.44;4930104;28;20605;-77
2022/11/21 15:05:42;;;;;;;24.15;15.77;;;;;;;-0.45;88.08;99806.22;4951312;28;20071;-77
2022/11/21 15:08:31;;;;;;;22.98;16.15;;;;;;;-0.49;88.15;99802.03;4938462;28;20063;-77
2022/11/21 16:24:23;;;;;;;26.20;18.98;;;;;;;-0.59;89.06;99789.31;4956898;29;20046;-77
2022/11/21 16:35:41;;;;;;;22.27;17.13;;;;;;;-0.55;88.69;99762.50;4958898;28;20065;-77
2022/11/21 16:51:13;;;;;;;23.70;17.33;;;;;;;-0.54;88.15;99771.09;4956536;28;20609;-77
2022/11/21 17:15:51;;;;;;;26.55;19.60;;;;;;;-0.53;88.71;99767.66;4950353;28;20084;-78
2022/11/21 18:40:22;;;;;;;26.58;20.60;;;;;;;-0.88;89.66;99716.91;4940606;29;20059;-78
2022/11/21 18:42:50;;;;;;;33.40;21.70;;;;;;;-0.93;89.48;99713.59;4931328;28;20134;-77
2022/11/21 18:58:12;;;;;;;30.42;21.48;;;;;;;-0.95;90.19;99681.78;4936436;28;20078;-77
2022/11/21 19:05:04;;;;;;;29.17;21.58;;;;;;;-1.06;90.36;99676.91;4939382;28;20041;-76
2022/11/21 19:07:32;;;;;;;33.30;22.17;;;;;;;-0.99;90.17;99675.00;4913822;28;20455;-77
2022/11/21 19:14:25;;;;;;;33.40;22.13;;;;;;;-0.90;89.75;99672.16;4930262;28;20047;-77
2022/11/21 19:16:52;;;;;;;31.88;22.15;;;;;;;-0.89;89.80;99669.56;4915195;28;20051;-77
2022/11/21 19:19:20;;;;;;;31.30;21.42;;;;;;;-0.93;89.84;99674.84;4937165;28;20522;-77
2022/11/21 19:22:05;;;;;;;32.83;23.55;;;;;;;-0.91;89.71;99675.66;4917302;28;20872;-78
2022/11/21 19:33:06;;;;;;;27.92;20.40;;;;;;;-0.71;88.60;99660.44;4945164;28;20101;-78
2022/11/21 19:35:44;;;;;;;29.10;20.42;;;;;;;-0.66;88.49;99653.41;4944005;28;20086;-78
2022/11/21 19:38:20;;;;;;;29.98;19.52;;;;;;;-0.65;88.19;99649.09;4944298;28;20047;-77
2022/11/21 19:43:39;;;;;;;27.90;19.27;;;;;;;-0.66;88.01;99640.47;4950874;28;20057;-77
2022/11/21 19:46:09;;;;;;;30.85;19.60;;;;;;;-0.65;88.62;99638.75;4951675;28;20174;-78
2022/11/21 19:48:37;;;;;;;27.23;18.27;;;;;;;-0.63;88.20;99624.91;4944510;28;20469;-77
